Time;durP1;ratioP1;P1;durP2;ratioP2;P2;SDS_P1;SDS_P2;PMS_P1;PMS_P2;Temp;Humidity;BMP_temperature;BMP_pressure;BME280_temperature;BME280_humidity;BME280_pressure;Samples;Min_cycle;Max_cycle;Signal;HPM_P1;HPM_P2
2021/12/16 00:19:23;;;;;;;34.25;17.42;;;;;;;3.28;98.84;97295.25;4837486;29;20046;-52
2021/12/16 00:19:44;;;;;;;36.30;17.60;;;;;;;3.62;97.40;97287.03;4839257;29;20133;-52
2021/12/16 00:33:36;;;;;;;37.95;18.25;;;;;;;3.67;97.52;97273.66;4831766;29;20042;-53
2021/12/16 00:36:07;;;;;;;33.42;16.58;;;;;;;3.41;97.99;97284.16;4834943;29;20385;-52
2021/12/16 00:38:36;;;;;;;35.88;17.13;;;;;;;3.25;98.76;97279.69;4836409;29;20078;-51
2021/12/16 00:41:04;;;;;;;35.38;17.95;;;;;;;3.51;97.58;97276.25;4822292;29;20129;-52
2021/12/16 00:43:49;;;;;;;33.08;17.38;;;;;;;2.68;100.00;97291.63;4816407;29;20597;-56
2021/12/16 00:46:44;;;;;;;36.17;17.75;;;;;;;2.97;100.00;97291.44;4816236;29;20141;-53
2021/12/16 00:49:19;;;;;;;32.75;16.55;;;;;;;3.14;100.00;97288.69;4832464;29;20137;-53
2021/12/16 00:54:39;;;;;;;33.75;16.88;;;;;;;3.36;98.75;97294.00;4830679;29;20488;-52
2021/12/16 00:57:12;;;;;;;36.90;18.20;;;;;;;3.58;97.58;97291.28;4834469;29;20681;-53
2021/12/16 00:59:42;;;;;;;34.25;17.08;;;;;;;3.43;97.89;97290.06;4834078;29;20095;-52
2021/12/16 01:02:49;;;;;;;35.60;17.25;;;;;;;3.14;100.00;97286.81;4834099;29;20505;-53
2021/12/16 01:35:38;;;;;;;42.95;18.77;;;;;;;3.78;95.50;97290.66;4834185;29;20038;-52
2021/12/16 01:51:23;;;;;;;41.80;19.90;;;;;;;3.38;98.14;97308.75;4837153;29;19963;-55
2021/12/16 01:57:16;;;;;;;42.03;19.40;;;;;;;3.39;97.61;97288.16;4834142;29;20042;-53
2021/12/16 01:59:48;;;;;;;42.05;20.23;;;;;;;3.28;98.40;97288.06;4821930;29;20064;-53
2021/12/16 02:08:14;;;;;;;40.78;19.42;;;;;;;3.65;95.82;97275.81;4836967;29;20045;-51
2021/12/16 02:10:26;;;;;;;40.67;18.83;;;;;;;3.64;96.32;97280.38;4838372;29;20069;-52
2021/12/16 02:29:39;;;;;;;40.15;19.17;;;;;;;3.48;97.19;97290.13;4831526;29;20066;-52
2021/12/16 02:32:15;;;;;;;47.63;19.58;;;;;;;3.54;97.25;97295.50;4834637;29;20451;-52
2021/12/16 02:37:16;;;;;;;44.97;19.50;;;;;;;3.74;95.85;97288.47;4839557;29;20235;-54
2021/12/16 02:39:47;;;;;;;43.63;19.25;;;;;;;3.54;97.10;97285.59;4833342;29;20155;-53
2021/12/16 02:42:21;;;;;;;43.30;19.65;;;;;;;3.58;96.35;97285.94;4840451;29;20730;-51
2021/12/16 02:50:07;;;;;;;42.95;19.38;;;;;;;3.47;97.04;97291.16;4835697;29;20041;-52
2021/12/16 02:52:34;;;;;;;39.00;18.65;;;;;;;3.60;96.53;97273.88;4837988;29;20056;-50
2021/12/16 02:55:03;;;;;;;39.97;18.98;;;;;;;3.33;98.01;97273.09;4834022;29;20042;-52
2021/12/16 02:57:35;;;;;;;39.83;18.90;;;;;;;3.31;98.31;97269.88;4831972;29;20233;-52
2021/12/16 03:00:05;;;;;;;44.65;19.27;;;;;;;3.32;98.03;97282.19;4840704;29;20046;-51
2021/12/16 03:02:31;;;;;;;45.30;20.08;;;;;;;3.16;98.62;97281.22;4837098;29;20052;-56
2021/12/16 03:04:58;;;;;;;43.38;19.65;;;;;;;3.03;99.57;97290.44;4838241;29;20685;-52
2021/12/16 03:07:25;;;;;;;44.03;19.13;;;;;;;3.20;98.57;97287.69;4837414;29;20125;-51
2021/12/16 03:10:31;;;;;;;43.67;19.90;;;;;;;2.70;100.00;97299.41;4831236;29;20042;-52
2021/12/16 03:18:28;;;;;;;41.10;18.05;;;;;;;3.03;100.00;97306.50;4835490;29;20677;-55
2021/12/16 03:21:06;;;;;;;36.92;18.17;;;;;;;2.74;100.00;97303.19;4815597;29;20145;-52
2021/12/16 03:37:18;;;;;;;51.05;23.05;;;;;;;2.53;100.00;97315.47;4832008;29;20042;-51
2021/12/16 03:40:07;;;;;;;47.83;23.10;;;;;;;2.27;100.00;97320.44;4840023;29;20080;-51
2021/12/16 03:43:00;;;;;;;43.75;19.45;;;;;;;2.08;100.00;97322.59;4833693;29;20126;-52
2021/12/16 03:48:38;;;;;;;43.75;21.00;;;;;;;2.34;100.00;97321.13;4835710;29;20041;-52
2021/12/16 03:51:21;;;;;;;41.95;21.10;;;;;;;2.18;100.00;97326.44;4830317;29;20066;-49
2021/12/16 03:53:50;;;;;;;;;;;;;;;2.10;100.00;97325.00;4832763;29;20073;-50
2021/12/16 03:56:23;;;;;;;40.67;20.30;;;;;;;2.13;100.00;97326.38;4835372;29;19924;-53
2021/12/16 03:59:06;;;;;;;;;;;;;;;2.55;100.00;97327.53;4833515;29;20046;-50
2021/12/16 04:01:45;;;;;;;33.13;16.10;;;;;;;1.99;100.00;97334.72;4831416;29;19955;-50
2021/12/16 04:04:17;;;;;;;41.95;20.25;;;;;;;2.07;100.00;97342.31;4833134;29;20049;-52
2021/12/16 04:06:45;;;;;;;42.47;21.05;;;;;;;2.23;100.00;97345.22;4836640;29;20050;-48
2021/12/16 04:09:15;;;;;;;35.20;17.80;;;;;;;2.33;100.00;97340.03;4830067;29;20046;-51
2021/12/16 04:12:03;;;;;;;34.90;17.50;;;;;;;2.25;100.00;97349.28;4835232;29;20045;-50
2021/12/16 04:14:31;;;;;;;35.17;17.80;;;;;;;1.96;100.00;97356.56;4828397;29;20042;-48
2021/12/16 04:17:02;;;;;;;33.92;17.13;;;;;;;1.93;100.00;97353.56;4837661;29;20141;-49
2021/12/16 04:19:56;;;;;;;32.78;15.35;;;;;;;2.17;100.00;97354.22;4837565;29;20170;-49
2021/12/16 04:22:33;;;;;;;32.65;15.55;;;;;;;2.16;100.00;97357.94;4838908;29;20244;-52
2021/12/16 04:25:08;;;;;;;31.60;15.68;;;;;;;1.74;100.00;97358.31;4833032;29;20403;-54
2021/12/16 04:27:36;;;;;;;28.08;14.45;;;;;;;1.75;100.00;97355.38;4832207;29;20049;-52
2021/12/16 04:30:07;;;;;;;32.45;15.02;;;;;;;1.87;100.00;97360.69;4837956;29;20136;-51
2021/12/16 04:32:37;;;;;;;30.02;14.07;;;;;;;1.64;100.00;97361.63;4837535;29;20050;-49
2021/12/16 04:35:05;;;;;;;31.38;14.55;;;;;;;1.71;100.00;97358.78;4836228;29;20038;-52
2021/12/16 04:37:34;;;;;;;30.23;14.52;;;;;;;1.94;100.00;97355.97;4832141;29;20409;-48
2021/12/16 04:40:07;;;;;;;28.10;13.35;;;;;;;1.93;100.00;97359.72;4827733;29;20587;-48
2021/12/16 04:42:37;;;;;;;;;;;;;;;1.80;100.00;97362.69;4832050;29;20516;-52
2021/12/16 04:45:08;;;;;;;30.63;13.95;;;;;;;1.61;100.00;97362.91;4836505;29;20557;-50
2021/12/16 04:47:37;;;;;;;27.73;12.57;;;;;;;2.08;100.00;97370.66;4834376;29;20098;-50
2021/12/16 04:50:07;;;;;;;27.45;12.70;;;;;;;1.99;100.00;97369.44;4836364;29;20046;-51
2021/12/16 04:52:34;;;;;;;27.23;12.77;;;;;;;1.67;100.00;97373.66;4835277;29;20038;-51
2021/12/16 04:55:05;;;;;;;21.10;9.90;;;;;;;1.72;100.00;97373.75;4835926;29;20038;-50
2021/12/16 04:57:33;;;;;;;25.45;11.70;;;;;;;1.72;100.00;97379.88;4835132;29;20054;-54
2021/12/16 05:00:04;;;;;;;23.45;10.40;;;;;;;1.76;100.00;97385.56;4833112;29;20409;-52
2021/12/16 05:02:34;;;;;;;22.27;10.30;;;;;;;1.63;100.00;97387.47;4837142;29;20085;-55
2021/12/16 05:05:08;;;;;;;23.15;11.05;;;;;;;1.63;100.00;97379.47;4829501;29;20125;-51
2021/12/16 05:07:35;;;;;;;20.65;9.73;;;;;;;1.61;100.00;97392.25;4833657;29;20153;-53
2021/12/16 05:10:24;;;;;;;22.08;11.00;;;;;;;2.07;100.00;97394.91;4833827;29;20128;-55
2021/12/16 05:13:15;;;;;;;21.42;10.75;;;;;;;2.04;100.00;97390.03;4839439;29;20058;-52
2021/12/16 05:15:43;;;;;;;22.90;10.48;;;;;;;2.16;100.00;97393.47;4829018;29;20074;-54
2021/12/16 05:18:18;;;;;;;21.90;10.93;;;;;;;2.29;100.00;97400.34;4841315;29;20508;-53
2021/12/16 05:20:51;;;;;;;19.42;9.48;;;;;;;1.90;100.00;97410.91;4830824;29;20078;-54
2021/12/16 05:28:32;;;;;;;19.75;9.48;;;;;;;1.59;100.00;97396.19;4844178;29;20093;-49
2021/12/16 05:30:59;;;;;;;19.05;9.20;;;;;;;1.49;100.00;97404.00;4843753;29;20497;-56
2021/12/16 05:33:30;;;;;;;21.75;9.95;;;;;;;1.52;100.00;97407.00;4838506;29;20064;-56
2021/12/16 05:35:57;;;;;;;24.75;11.63;;;;;;;1.62;100.00;97403.72;4841248;29;20076;-55
2021/12/16 05:38:27;;;;;;;20.05;9.65;;;;;;;1.62;100.00;97414.38;4827019;29;20074;-52
2021/12/16 05:40:57;;;;;;;20.92;10.02;;;;;;;1.80;100.00;97414.19;4828903;29;20053;-52
2021/12/16 05:43:30;;;;;;;23.85;10.98;;;;;;;1.65;100.00;97421.91;4800996;29;20054;-52
2021/12/16 05:46:00;;;;;;;22.70;11.07;;;;;;;1.84;100.00;97417.19;4822348;29;20118;-53
2021/12/16 05:48:31;;;;;;;24.35;11.10;;;;;;;2.02;100.00;97422.34;4837899;29;20066;-50
2021/12/16 05:51:04;;;;;;;19.92;9.93;;;;;;;1.97;100.00;97422.22;4837103;29;20049;-55
2021/12/16 05:53:32;;;;;;;;;;;;;;;1.82;100.00;97425.47;4834853;29;20465;-53
2021/12/16 05:56:00;;;;;;;19.38;9.35;;;;;;;1.84;100.00;97433.22;4837252;29;20387;-49
2021/12/16 05:58:33;;;;;;;22.40;9.75;;;;;;;1.75;100.00;97434.63;4838913;29;20049;-48
2021/12/16 06:01:04;;;;;;;24.02;11.30;;;;;;;2.44;100.00;97437.97;4834572;29;20058;-48
2021/12/16 06:03:33;;;;;;;22.23;10.45;;;;;;;2.50;99.93;97437.03;4837651;29;20106;-50
2021/12/16 06:06:02;;;;;;;20.70;9.88;;;;;;;1.69;100.00;97438.25;4830539;29;20099;-52
2021/12/16 06:08:30;;;;;;;24.55;11.55;;;;;;;1.81;100.00;97447.03;4839100;29;20046;-46
2021/12/16 06:13:30;;;;;;;25.90;11.57;;;;;;;1.67;100.00;97441.19;4842176;29;20056;-49
2021/12/16 06:29:17;;;;;;;27.02;11.98;;;;;;;2.05;100.00;97467.25;4831380;29;20050;-50
2021/12/16 06:31:44;;;;;;;23.85;11.93;;;;;;;2.49;100.00;97462.09;4840193;29;20133;-48
2021/12/16 06:34:11;;;;;;;22.08;11.73;;;;;;;2.96;98.86;97468.97;4835320;29;20556;-50
2021/12/16 06:36:38;;;;;;;23.73;10.63;;;;;;;2.36;100.00;97470.44;4833251;29;20054;-51
2021/12/16 06:39:05;;;;;;;21.65;10.93;;;;;;;1.90;100.00;97463.47;4834736;29;20400;-50
2021/12/16 06:41:38;;;;;;;18.35;8.32;;;;;;;1.80;100.00;97469.44;4837236;29;20042;-49
2021/12/16 06:44:38;;;;;;;20.58;9.60;;;;;;;1.72;100.00;97464.47;4835214;29;20057;-52
2021/12/16 06:47:10;;;;;;;19.08;9.52;;;;;;;1.79;100.00;97470.50;4834283;29;20133;-51
2021/12/16 06:49:40;;;;;;;21.85;10.02;;;;;;;2.18;100.00;97458.13;4838290;29;20062;-55
2021/12/16 06:52:11;;;;;;;20.75;10.15;;;;;;;2.94;97.21;97468.41;4836640;29;20056;-53
2021/12/16 06:55:08;;;;;;;22.45;11.35;;;;;;;1.89;100.00;97470.69;4840037;29;20056;-48
2021/12/16 06:57:44;;;;;;;23.25;11.10;;;;;;;2.64;99.65;97472.22;4834259;29;20428;-52
2021/12/16 07:00:27;;;;;;;23.77;10.90;;;;;;;2.60;98.22;97476.44;4839729;29;20077;-53
2021/12/16 07:03:05;;;;;;;21.88;10.27;;;;;;;2.41;98.87;97470.53;4839975;29;20046;-53
2021/12/16 07:05:40;;;;;;;21.77;11.00;;;;;;;2.46;98.57;97465.25;4837938;29;20064;-55
2021/12/16 07:08:12;;;;;;;22.00;9.75;;;;;;;2.41;98.82;97469.72;4840902;29;20125;-49
2021/12/16 07:10:46;;;;;;;22.42;10.45;;;;;;;2.50;98.92;97469.06;4839597;29;20052;-49
2021/12/16 07:13:28;;;;;;;24.27;10.50;;;;;;;2.61;98.13;97475.38;4837404;29;20216;-52
2021/12/16 07:15:57;;;;;;;19.38;9.60;;;;;;;2.38;98.30;97457.66;4835965;29;20133;-50
2021/12/16 07:18:25;;;;;;;18.98;9.10;;;;;;;2.50;98.23;97465.56;4844006;29;20064;-51
2021/12/16 07:20:53;;;;;;;18.73;8.35;;;;;;;2.67;97.20;97469.06;4843808;29;20048;-49
2021/12/16 07:23:22;;;;;;;18.75;8.57;;;;;;;2.64;97.43;97474.09;4842186;29;20092;-48
2021/12/16 07:25:49;;;;;;;18.65;9.30;;;;;;;2.75;97.06;97474.00;4827211;29;20076;-47
2021/12/16 07:28:16;;;;;;;16.83;7.85;;;;;;;2.92;95.54;97473.97;4840135;29;20060;-48
2021/12/16 07:30:44;;;;;;;16.88;6.93;;;;;;;2.74;96.16;97483.06;4830255;29;20049;-49
2021/12/16 07:33:13;;;;;;;14.27;7.15;;;;;;;2.66;94.89;97477.31;4836225;29;20125;-49
2021/12/16 07:35:41;;;;;;;13.57;5.93;;;;;;;2.47;94.75;97496.28;4836864;29;20084;-48
2021/12/16 07:38:09;;;;;;;12.25;5.88;;;;;;;2.76;94.59;97493.50;4839172;29;20102;-48
2021/12/16 07:40:39;;;;;;;11.27;5.22;;;;;;;2.85;92.93;97501.94;4841696;29;20070;-51
2021/12/16 07:45:46;;;;;;;13.57;6.53;;;;;;;2.40;100.00;97489.44;4837838;29;20061;-49
2021/12/16 07:48:15;;;;;;;13.30;6.65;;;;;;;2.76;99.18;97493.50;4834904;29;20077;-51
2021/12/16 07:50:45;;;;;;;13.35;6.05;;;;;;;2.77;96.35;97489.81;4833352;29;20093;-49
2021/12/16 07:53:13;;;;;;;13.25;6.05;;;;;;;2.89;96.42;97489.69;4834581;29;20052;-51
2021/12/16 07:55:42;;;;;;;11.25;6.07;;;;;;;3.12;95.81;97494.03;4843833;29;20073;-49
2021/12/16 07:58:11;;;;;;;17.70;7.75;;;;;;;2.65;97.47;97486.41;4850218;29;20061;-51
2021/12/16 08:00:39;;;;;;;13.45;6.18;;;;;;;2.40;99.81;97492.13;4847930;29;20136;-48
2021/12/16 08:03:09;;;;;;;15.85;7.30;;;;;;;3.02;98.26;97502.72;4828178;29;20130;-47
2021/12/16 08:05:40;;;;;;;14.68;6.82;;;;;;;2.74;98.94;97501.78;4845718;29;20468;-47
2021/12/16 08:08:08;;;;;;;16.95;8.00;;;;;;;2.60;99.70;97507.69;4840093;29;20513;-49
2021/12/16 08:10:36;;;;;;;15.93;7.65;;;;;;;3.08;97.01;97506.28;4836273;29;20053;-48
2021/12/16 08:13:05;;;;;;;13.65;6.85;;;;;;;2.75;97.46;97518.63;4837706;29;20054;-48
2021/12/16 08:15:32;;;;;;;14.02;6.78;;;;;;;3.20;97.28;97520.38;4837759;29;20074;-49
2021/12/16 08:17:59;;;;;;;27.67;16.70;;;;;;;3.82;93.36;97522.00;4834883;29;20050;-49
2021/12/16 08:20:27;;;;;;;17.25;7.85;;;;;;;3.49;94.86;97519.19;4835705;29;20497;-50
2021/12/16 08:22:57;;;;;;;14.82;7.32;;;;;;;3.20;94.28;97523.06;4838836;29;20056;-48
2021/12/16 08:25:27;;;;;;;15.07;7.65;;;;;;;3.02;94.54;97526.78;4835719;29;20542;-50
2021/12/16 08:27:55;;;;;;;13.25;7.00;;;;;;;2.73;96.76;97529.56;4842402;29;20077;-52
2021/12/16 08:30:26;;;;;;;14.77;6.72;;;;;;;2.88;95.76;97520.97;4841339;29;20413;-50
2021/12/16 08:32:55;;;;;;;12.68;6.45;;;;;;;2.72;97.02;97521.78;4835294;29;20045;-46
2021/12/16 08:35:23;;;;;;;14.23;6.85;;;;;;;3.54;94.26;97522.97;4829902;29;20130;-45
2021/12/16 08:37:50;;;;;;;15.38;6.85;;;;;;;3.35;93.42;97522.44;4833526;29;20077;-45
2021/12/16 08:40:21;;;;;;;17.40;7.13;;;;;;;3.42;93.60;97525.78;4839414;29;20046;-47
2021/12/16 08:42:49;;;;;;;14.20;7.25;;;;;;;2.68;96.48;97531.34;4834102;29;20513;-46
2021/12/16 08:45:30;;;;;;;13.90;7.95;;;;;;;3.73;93.10;97529.63;4836262;29;20046;-49
2021/12/16 08:47:58;;;;;;;13.52;6.22;;;;;;;3.30;92.25;97535.75;4833542;29;20137;-47
2021/12/16 08:50:30;;;;;;;12.57;6.60;;;;;;;3.50;92.13;97526.13;4841518;29;20121;-50
2021/12/16 08:52:59;;;;;;;14.70;7.22;;;;;;;3.61;92.73;97531.66;4834287;29;20053;-50
2021/12/16 08:55:30;;;;;;;13.77;6.57;;;;;;;3.67;92.21;97530.63;4837190;29;20042;-49
2021/12/16 08:57:58;;;;;;;14.00;7.22;;;;;;;3.80;90.47;97535.59;4843417;29;20050;-46
2021/12/16 09:00:31;;;;;;;10.68;5.75;;;;;;;3.10;93.20;97537.09;4832966;29;20166;-46
2021/12/16 09:02:58;;;;;;;12.02;5.72;;;;;;;3.13;93.37;97531.25;4835209;29;20070;-49
2021/12/16 09:05:26;;;;;;;11.52;5.63;;;;;;;3.49;92.35;97534.44;4836126;29;20485;-47
2021/12/16 09:07:53;;;;;;;11.55;5.82;;;;;;;3.46;90.34;97541.06;4842844;29;20058;-46
2021/12/16 09:10:27;;;;;;;11.00;5.57;;;;;;;3.53;90.94;97540.91;4839793;29;20480;-46
2021/12/16 09:15:27;;;;;;;8.68;4.93;;;;;;;3.33;90.03;97549.44;4840352;29;20465;-45
2021/12/16 09:17:54;;;;;;;11.20;5.00;;;;;;;3.67;89.98;97560.91;4841367;29;20053;-49
2021/12/16 09:20:21;;;;;;;9.98;5.38;;;;;;;3.69;89.06;97555.28;4838048;29;20406;-47
2021/12/16 09:22:49;;;;;;;10.23;5.18;;;;;;;3.57;90.71;97562.63;4848605;29;20416;-45
2021/12/16 09:25:17;;;;;;;9.07;5.03;;;;;;;3.45;89.93;97563.53;4844343;29;20049;-47
2021/12/16 09:27:44;;;;;;;7.82;4.47;;;;;;;3.51;90.58;97564.44;4838637;29;20046;-48
2021/12/16 09:30:16;;;;;;;11.27;6.22;;;;;;;3.02;93.06;97564.22;4836528;24;20042;-46
2021/12/16 09:32:44;;;;;;;16.48;7.50;;;;;;;3.48;92.91;97562.25;4821260;29;21070;-46
2021/12/16 09:38:30;;;;;;;14.52;7.28;;;;;;;3.25;95.45;97572.09;4810787;29;20141;-46
2021/12/16 09:41:01;;;;;;;12.05;6.82;;;;;;;2.89;97.25;97562.69;4820704;29;20062;-50
2021/12/16 09:43:31;;;;;;;11.48;6.18;;;;;;;2.59;98.58;97565.66;4817689;29;20054;-46
2021/12/16 09:46:02;;;;;;;16.63;6.32;;;;;;;2.68;99.05;97568.75;4817838;29;20069;-49
2021/12/16 09:48:31;;;;;;;14.77;7.18;;;;;;;3.04;98.33;97570.94;4802774;29;20050;-49
2021/12/16 09:51:00;;;;;;;12.90;7.03;;;;;;;3.06;96.62;97572.59;4809340;29;20054;-46
2021/12/16 09:53:28;;;;;;;13.95;6.72;;;;;;;3.27;97.14;97564.63;4805376;29;20076;-45
2021/12/16 09:55:59;;;;;;;10.75;6.50;;;;;;;3.40;94.14;97568.00;4827278;23;20997;-47
2021/12/16 09:58:32;;;;;;;10.73;6.03;;;;;;;3.46;93.95;97578.53;4840176;29;20117;-47
2021/12/16 10:01:01;;;;;;;12.68;6.53;;;;;;;3.17;96.44;97577.03;4837488;29;20080;-47
2021/12/16 10:03:29;;;;;;;13.15;7.40;;;;;;;3.39;96.91;97574.44;4843233;29;20534;-50
2021/12/16 10:05:57;;;;;;;10.38;5.95;;;;;;;3.12;96.54;97569.75;4842241;29;20038;-48
2021/12/16 10:08:25;;;;;;;12.70;6.68;;;;;;;2.72;99.07;97573.38;4842775;29;20046;-48
2021/12/16 10:10:52;;;;;;;13.35;7.72;;;;;;;2.61;100.00;97576.13;4843125;29;20500;-46
2021/12/16 10:13:30;;;;;;;12.10;7.40;;;;;;;2.89;98.42;97575.25;4843442;29;20050;-46
2021/12/16 10:18:36;;;;;;;10.70;6.13;;;;;;;3.62;96.37;97570.72;4843501;29;20133;-46
2021/12/16 10:21:07;;;;;;;31.70;16.38;;;;;;;3.68;94.93;97559.03;4841719;29;20072;-44
2021/12/16 10:23:39;;;;;;;15.23;7.50;;;;;;;2.90;99.50;97569.66;4848668;29;20518;-48
2021/12/16 10:26:29;;;;;;;13.80;7.80;;;;;;;3.25;99.23;97565.91;4854669;29;20049;-47
2021/12/16 10:28:59;;;;;;;12.25;6.32;;;;;;;3.39;96.33;97566.41;4843337;29;20045;-48
2021/12/16 10:31:34;;;;;;;14.70;7.20;;;;;;;3.53;97.03;97556.16;4840043;29;20129;-47
2021/12/16 10:34:05;;;;;;;13.60;7.72;;;;;;;3.18;99.11;97559.91;4841674;29;20137;-45
2021/12/16 10:36:41;;;;;;;12.52;6.88;;;;;;;3.71;95.12;97548.63;4849843;29;20052;-46
2021/12/16 10:39:14;;;;;;;13.32;7.95;;;;;;;3.74;94.66;97550.00;4846001;29;20189;-44
2021/12/16 10:41:45;;;;;;;15.68;8.10;;;;;;;3.69;93.57;97547.25;4838562;29;20440;-46
2021/12/16 10:44:34;;;;;;;11.68;6.80;;;;;;;3.03;98.49;97553.28;4837841;29;20061;-47
2021/12/16 10:47:13;;;;;;;13.57;7.72;;;;;;;3.13;98.71;97551.84;4833647;29;20148;-47
2021/12/16 10:49:52;;;;;;;11.60;6.57;;;;;;;2.86;99.25;97546.31;4832189;29;20069;-44
2021/12/16 10:52:26;;;;;;;12.70;7.55;;;;;;;2.68;100.00;97534.81;4838901;29;20062;-47
2021/12/16 10:54:56;;;;;;;13.65;8.02;;;;;;;3.07;100.00;97542.13;4836290;29;20122;-47
2021/12/16 10:57:26;;;;;;;14.98;7.18;;;;;;;2.91;99.01;97533.03;4838497;29;20071;-46
2021/12/16 11:00:04;;;;;;;14.27;7.85;;;;;;;3.48;98.15;97530.94;4839413;29;20078;-47
2021/12/16 11:02:37;;;;;;;12.20;6.13;;;;;;;2.74;97.95;97536.53;4837936;29;20102;-45
2021/12/16 11:05:17;;;;;;;10.73;6.38;;;;;;;2.86;98.90;97544.47;4839811;29;20107;-47
2021/12/16 11:07:47;;;;;;;11.43;6.32;;;;;;;3.04;98.58;97533.50;4851527;29;20457;-44
2021/12/16 11:10:28;;;;;;;10.80;6.22;;;;;;;3.12;97.65;97535.00;4820094;29;20066;-48
2021/12/16 11:13:10;;;;;;;11.02;6.43;;;;;;;2.81;98.33;97529.16;4833055;29;20050;-44
2021/12/16 11:15:48;;;;;;;12.50;5.80;;;;;;;2.94;98.21;97540.56;4834437;29;20073;-44
2021/12/16 11:18:20;;;;;;;13.40;6.90;;;;;;;3.13;97.63;97543.81;4835805;29;20056;-46
2021/12/16 11:21:09;;;;;;;13.93;6.88;;;;;;;3.74;95.97;97534.75;4834952;29;20046;-45
2021/12/16 11:23:40;;;;;;;12.60;7.70;;;;;;;4.02;94.83;97532.94;4834212;29;20054;-46
2021/12/16 11:26:26;;;;;;;12.15;6.32;;;;;;;3.22;97.10;97537.00;4836166;29;20792;-45
2021/12/16 11:28:54;;;;;;;13.95;7.53;;;;;;;3.46;97.31;97541.06;4830622;29;20144;-49
2021/12/16 11:31:28;;;;;;;11.73;6.47;;;;;;;3.59;96.62;97537.22;4837976;29;20427;-46
2021/12/16 11:34:06;;;;;;;10.70;6.18;;;;;;;3.18;96.31;97535.84;5062041;28;20467;-49
2021/12/16 11:36:53;;;;;;;10.88;6.45;;;;;;;3.23;96.63;97536.75;5039924;28;20037;-50
2021/12/16 11:39:23;;;;;;;10.50;6.05;;;;;;;3.04;96.65;97530.84;5040224;28;20077;-46
2021/12/16 11:41:57;;;;;;;10.88;5.75;;;;;;;3.29;96.59;97534.97;5054136;28;20069;-48
2021/12/16 11:44:25;;;;;;;10.32;5.93;;;;;;;3.23;96.45;97541.28;5039952;28;20080;-46
2021/12/16 11:46:55;;;;;;;12.45;6.55;;;;;;;3.67;95.91;97530.63;5049805;28;20044;-47
2021/12/16 11:49:30;;;;;;;10.20;6.40;;;;;;;4.01;92.92;97530.50;5048129;28;20414;-48
2021/12/16 11:52:03;;;;;;;9.40;6.00;;;;;;;3.56;93.85;97534.25;5057456;28;20431;-46
2021/12/16 11:54:41;;;;;;;9.30;5.72;;;;;;;3.32;94.17;97529.13;5045792;28;20476;-45
2021/12/16 11:57:20;;;;;;;10.55;5.35;;;;;;;3.41;96.08;97535.66;5042362;28;20088;-48
2021/12/16 11:59:49;;;;;;;11.60;5.65;;;;;;;3.33;94.88;97535.28;5045358;28;20121;-45
2021/12/16 12:02:22;;;;;;;8.57;5.10;;;;;;;3.30;94.77;97536.56;5034011;28;20052;-50
2021/12/16 12:04:50;;;;;;;9.63;5.55;;;;;;;3.32;94.31;97529.13;5045691;28;20076;-50
2021/12/16 12:07:18;;;;;;;9.55;5.63;;;;;;;3.32;95.16;97545.16;5048819;28;20448;-46
2021/12/16 12:09:52;;;;;;;10.50;5.60;;;;;;;3.46;95.85;97543.75;5051317;28;20068;-47
2021/12/16 12:12:43;;;;;;;10.38;6.32;;;;;;;3.62;94.69;97538.63;5047115;28;20044;-46
2021/12/16 12:15:13;;;;;;;8.23;4.78;;;;;;;3.46;92.92;97543.75;5043826;28;20041;-44
2021/12/16 12:18:06;;;;;;;9.77;5.32;;;;;;;3.33;93.35;97541.44;5045583;28;20136;-44
2021/12/16 12:20:36;;;;;;;10.90;5.22;;;;;;;3.46;92.80;97542.94;5040752;28;20052;-47
2021/12/16 12:23:03;;;;;;;9.57;5.13;;;;;;;3.74;93.76;97539.31;5049236;28;20052;-50
2021/12/16 12:25:30;;;;;;;8.63;5.07;;;;;;;4.27;92.14;97539.63;5039256;28;20065;-48
2021/12/16 12:27:57;;;;;;;9.45;5.07;;;;;;;4.54;89.61;97542.31;5039064;28;20081;-47
2021/12/16 12:30:24;;;;;;;10.80;5.82;;;;;;;4.33;89.57;97539.44;5049721;28;20131;-50
2021/12/16 12:32:51;;;;;;;8.05;5.20;;;;;;;4.60;88.13;97534.06;5043083;28;20056;-48
2021/12/16 12:35:28;;;;;;;10.80;5.47;;;;;;;4.44;89.48;97537.66;5051519;28;20034;-49
2021/12/16 12:37:59;;;;;;;10.18;5.00;;;;;;;3.86;90.39;97526.59;5043799;28;20137;-45
2021/12/16 12:40:37;;;;;;;13.23;5.30;;;;;;;4.22;90.74;97529.66;5046195;28;20048;-46
2021/12/16 12:43:09;;;;;;;10.55;5.43;;;;;;;4.35;89.32;97531.13;5041070;28;20561;-48
2021/12/16 12:45:41;;;;;;;8.27;5.25;;;;;;;3.97;91.17;97527.53;5035120;28;20670;-45
2021/12/16 12:48:15;;;;;;;7.78;5.00;;;;;;;4.54;89.16;97526.22;5032675;28;20037;-46
2021/12/16 12:50:45;;;;;;;9.18;4.88;;;;;;;3.94;90.52;97536.88;5029760;28;20041;-47
2021/12/16 12:53:17;;;;;;;9.32;5.10;;;;;;;3.51;92.06;97527.78;5038540;28;20124;-47
2021/12/16 12:55:46;;;;;;;10.43;5.28;;;;;;;3.68;92.66;97525.03;5021748;28;20045;-49
2021/12/16 12:58:19;;;;;;;19.52;6.85;;;;;;;4.01;91.89;97530.50;5031887;28;20045;-44
2021/12/16 13:00:48;;;;;;;8.70;5.28;;;;;;;4.49;88.78;97523.50;5031335;28;20060;-46
2021/12/16 13:03:28;;;;;;;9.38;5.72;;;;;;;4.10;91.20;97518.31;5030388;28;20445;-45
2021/12/16 13:06:02;;;;;;;13.27;5.57;;;;;;;3.83;92.06;97519.03;5034663;28;20060;-45
2021/12/16 13:08:33;;;;;;;8.40;5.22;;;;;;;4.50;90.06;97522.44;5030650;28;20045;-48
2021/12/16 13:11:05;;;;;;;8.43;5.35;;;;;;;3.77;91.58;97524.59;5029101;28;20051;-48
2021/12/16 13:13:38;;;;;;;8.13;4.85;;;;;;;3.70;92.48;97517.56;5034183;28;20387;-43
2021/12/16 13:24:53;;;;;;;8.00;5.05;;;;;;;4.48;90.64;97522.69;5022428;28;20044;-46
2021/12/16 13:27:32;;;;;;;10.68;5.00;;;;;;;3.73;90.43;97517.06;5024089;28;20084;-47
2021/12/16 13:32:47;;;;;;;8.25;4.72;;;;;;;3.79;90.83;97509.91;5015298;28;20491;-45
2021/12/16 13:35:33;;;;;;;8.18;4.50;;;;;;;3.65;91.84;97509.47;5016900;28;20509;-45
2021/12/16 13:38:07;;;;;;;9.10;5.10;;;;;;;3.88;91.92;97510.28;5030386;28;20470;-47
2021/12/16 13:40:40;;;;;;;7.43;4.53;;;;;;;4.08;90.42;97512.38;5020594;28;20052;-47
2021/12/16 13:43:22;;;;;;;7.00;4.20;;;;;;;3.82;91.57;97516.63;5033561;28;20107;-47
2021/12/16 14:03:15;;;;;;;7.75;4.95;;;;;;;3.79;91.59;97538.56;5022307;28;20129;-46
2021/12/16 14:06:21;;;;;;;7.75;4.72;;;;;;;3.82;92.27;97538.84;5025437;28;20109;-46
2021/12/16 14:08:53;;;;;;;7.63;4.88;;;;;;;3.99;91.73;97530.75;5023892;28;20120;-46
2021/12/16 14:12:24;;;;;;;7.03;4.40;;;;;;;3.89;90.71;97527.97;5024835;28;20045;-48
2021/12/16 14:17:57;;;;;;;9.38;5.40;;;;;;;4.26;90.81;97509.38;5026212;28;20065;-47
2021/12/16 14:23:39;;;;;;;9.95;5.28;;;;;;;3.74;92.57;97517.91;5020281;28;20128;-49
2021/12/16 14:40:05;;;;;;;10.43;6.70;;;;;;;3.42;95.36;97534.59;5029992;28;20064;-47
2021/12/16 14:50:48;;;;;;;11.63;6.85;;;;;;;3.48;95.21;97568.41;5024281;28;20040;-49
2021/12/16 14:53:26;;;;;;;10.13;6.00;;;;;;;3.27;95.98;97579.84;5025314;28;20041;-46
2021/12/16 14:56:04;;;;;;;10.27;6.32;;;;;;;3.32;95.61;97576.47;5027697;28;20041;-48
2021/12/16 14:58:31;;;;;;;14.57;6.40;;;;;;;3.26;94.87;97579.06;5028585;28;20491;-45
2021/12/16 15:01:04;;;;;;;12.18;6.80;;;;;;;3.25;94.92;97589.97;5026545;28;20522;-46
2021/12/16 15:03:36;;;;;;;;;;;;;;;3.42;94.27;97587.31;5017618;28;20088;-47
2021/12/16 15:06:29;;;;;;;10.85;6.10;;;;;;;3.32;94.59;97593.31;5027606;28;20413;-50
2021/12/16 15:09:14;;;;;;;11.13;6.15;;;;;;;3.14;95.21;97583.66;5021315;28;20052;-49
2021/12/16 15:12:00;;;;;;;9.63;5.20;;;;;;;3.10;96.11;97585.22;5021801;28;20164;-49
2021/12/16 15:35:45;;;;;;;11.13;6.03;;;;;;;3.17;95.36;97571.69;5025397;28;20268;-48
2021/12/16 15:37:29;;;;;;;10.85;6.65;;;;;;;3.12;96.73;97576.94;5026814;28;20064;-48
2021/12/16 15:45:31;;;;;;;11.70;6.88;;;;;;;2.90;97.76;97569.66;5021243;28;20495;-46
2021/12/16 15:48:02;;;;;;;17.38;7.88;;;;;;;3.04;97.35;97573.63;5023909;28;20072;-47
2021/12/16 15:50:40;;;;;;;12.18;7.57;;;;;;;2.97;98.05;97591.69;5017278;28;20045;-46
2021/12/16 15:53:13;;;;;;;11.48;7.25;;;;;;;2.93;97.86;97614.63;5043700;28;20119;-46
2021/12/16 15:56:10;;;;;;;13.63;7.60;;;;;;;2.99;97.90;97608.31;5012219;28;20499;-48
2021/12/16 15:59:05;;;;;;;12.32;7.05;;;;;;;2.95;97.21;97617.06;5025372;28;20046;-49
2021/12/16 16:01:39;;;;;;;12.27;7.72;;;;;;;2.85;97.54;97601.66;5028829;28;20103;-47
2021/12/16 16:04:22;;;;;;;12.57;7.85;;;;;;;2.88;97.91;97590.47;5024104;28;20069;-49